首页
METAR-TAF:

METAR-TAF

机场 :

博兹曼机场

博兹曼, 蒙大拿州, 美国

纬度: 45-47-17N, 经度: 111-09-39W, 海拔: 1364米

当前天气观测

该预报发布于52分钟前的00:56 UTC
风速11节,风向西转西南
温度 -2°C
湿度 54%
气压 1008 hPa
能見度: 16.1公里
少量云层高于9500英尺
散云层高于11000英尺

METAR: KBZN 050056Z 24011KT 10SM FEW095 SCT110 M02/M10 A2977 RMK AO2 SLP127 T10171100

时间: 18:48 (01:48 UTC)

预报

该预报发布于2小时和25分钟前的23:23 UTC
预报有效从05日的 00点(UTC)到 06日的 06点(UTC)
风速9节,风向西转西南
能見度: 10公里
散云层高于7000英尺
多云层高于15000英尺
多云层高于25000英尺
从 05日的 0300点(UTC)
风速6节,风向多变
能見度: 10公里
多云层高于4000英尺
几率 30%
从 05日的 15点(UTC)到 05日的 16点(UTC)
能見度: 4.8公里
阴天层高于2500英尺
小阵雪, 轻雾
从 05日的 1600点(UTC)
风速6节,风向多变
能見度: 10公里
多云层高于3000英尺
几率 30%
从 05日的 16点(UTC)到 05日的 17点(UTC)
能見度: 4.8公里
阴天层高于1500英尺
小阵雪, 轻雾
从 05日的 1700点(UTC)
风速6节,风向多变
能見度: 4.8公里
阴天层高于1500英尺
小阵雪, 轻雾,

TAF: KBZN 042323Z 0500/0606 25009KT P6SM SCT070 BKN150 BKN250 FM050300 VRB06KT P6SM BKN040 PROB30 0515/0516 3SM -SHSN BR OVC025 FM051600 VRB06KT P6SM BKN030 PROB30 0516/0517 3SM -SHSN BR OVC015 FM051700 VRB06KT 3SM -SHSN BR OVC015

超过4000个机场的气象观测和天气预报(METAR&TAF报告)。

可查询的气象台以黄色和红色小点在地图上表示。

将鼠标移到小点上方,可查看气象台名称。

然后点击查看天气观测和预报。

如需切换地图:点击带黑十字的绿色按钮放大地图;点击带横线的绿色按钮缩小地图;或者点击绿色箭头查看邻近地区的地图。


METAR-TAF: